Aidamar — ICSJ — position and weather

sailwx.info

Track history (hours):
 
Tides and Currents Weather Stations Pressure Air Temp Water Temp Dewpoint Dewpoint Depression Visibility Wind Speed Wind Dir Waves Ship Positions

Aidamar

Last reported at 2015-Sep-03 18:33 UTC. Time now 2015-Sep-03 23:27 UTC.
Position N 59°25' E 018°24'.

Length 253 m; draft 7.3 m.

Type: Passenger vessel. MMSI: 247312900.

Date/timePositionNaut miles runAvg speedWind from/ knotsBaromVisibWave heightAir tempDewpointWater temp
2015-Sep-03 18:33N 59°25' E 018°24'8 7.0
2015-Sep-03 17:27N 59°20' E 018°13'4 3.2
2015-Sep-03 16:22N 59°19' E 018°06'0 0.0
2015-Sep-03 15:28N 59°19' E 018°06'0 0.0
2015-Sep-03 14:28N 59°19' E 018°06'0 0.0
2015-Sep-03 13:32N 59°19' E 018°06'0 0.0
2015-Sep-03 12:32N 59°19' E 018°06'0 0.0
2015-Sep-03 11:33N 59°19' E 018°06'0 0.0
2015-Sep-03 10:33N 59°19' E 018°06'0 0.0
2015-Sep-03 09:33N 59°19' E 018°06'0 0.0
2015-Sep-03 08:30N 59°19' E 018°06'0 0.0
2015-Sep-03 07:33N 59°19' E 018°06'2 2.3
2015-Sep-03 06:33N 59°19' E 018°10'9411.2
2015-Sep-02 22:12N 59°33' E 021°13'1016.1
2015-Sep-02 21:34N 59°32' E 021°33'5516.0
2015-Sep-02 18:09N 59°37' E 023°21'1116.2
2015-Sep-02 17:28N 59°40' E 023°42'1716.5
2015-Sep-02 16:25N 59°45' E 024°15'167 7.5
2015-Sep-01 18:05N 59°59' E 029°46'611.6
2015-Sep-01 17:33N 59°56' E 029°57'7 6.7
2015-Sep-01 16:29N 59°57' E 030°11'0 0.0
2015-Sep-01 15:32N 59°57' E 030°11'0 0.0
2015-Sep-01 14:24N 59°57' E 030°11'0 0.0
2015-Sep-01 13:32N 59°57' E 030°11'0 0.0
2015-Sep-01 12:30N 59°57' E 030°11'0 0.0
2015-Sep-01 11:33N 59°57' E 030°11'0 0.0
2015-Sep-01 10:33N 59°57' E 030°11'0 0.0
2015-Sep-01 09:19N 59°57' E 030°11'0 0.0
2015-Sep-01 08:33N 59°57' E 030°11'0 0.0
2015-Sep-01 07:32N 59°57' E 030°11'0 0.0
2015-Sep-01 06:32N 59°57' E 030°11'0 0.0
2015-Sep-01 05:23N 59°57' E 030°11'0 0.0
2015-Sep-01 04:30N 59°57' E 030°11'3 2.8
2015-Sep-01 03:33N 59°57' E 030°06'1010.4
2015-Sep-01 02:33N 59°59' E 029°46'8013.1
2015-Aug-31 20:26N 59°59' E 027°05'1416.4
2015-Aug-31 19:34N 59°59' E 026°36'1716.8
2015-Aug-31 18:33N 59°54' E 026°04'1816.8
2015-Aug-31 17:30N 59°49' E 025°31'2016.8
2015-Aug-31 16:20N 59°43' E 024°53'1114.4
2015-Aug-31 15:33N 59°33' E 024°43'6 1.8
2015-Aug-31 12:11N 59°27' E 024°46'0 0.0
2015-Aug-31 11:33N 59°27' E 024°46'0 0.0
2015-Aug-31 10:33N 59°27' E 024°46'0 0.0
2015-Aug-31 09:29N 59°27' E 024°46'0 0.0
2015-Aug-31 08:32N 59°27' E 024°46'0 0.0
2015-Aug-31 07:33N 59°27' E 024°46'0 0.0
2015-Aug-31 06:30N 59°27' E 024°46'0 0.0
2015-Aug-31 05:33N 59°27' E 024°46'6 6.4
2015-Aug-31 04:33N 59°30' E 024°34'1714.8
2015-Aug-31 03:24N 59°30' E 024°01'2111.2
2015-Aug-31 01:32N 59°30' E 023°20'9 9.1
2015-Aug-31 00:33N 59°28' E 023°02'26714.8
2015-Aug-30 06:29N 56°16' E 017°14'4916.6
2015-Aug-30 03:33N 55°50' E 016°01'1716.9
2015-Aug-30 02:33N 55°42' E 015°35'1717.1
2015-Aug-30 01:33N 55°33' E 015°08'1717.0
2015-Aug-30 00:33N 55°25' E 014°42'1716.8
2015-Aug-29 23:34N 55°12' E 014°23'1616.4
2015-Aug-29 22:33N 55°00' E 014°03'1616.3
2015-Aug-29 21:34N 54°55' E 013°36'1616.2
2015-Aug-29 20:33N 54°50' E 013°09'1615.8
2015-Aug-29 19:33N 54°45' E 012°44'1616.0
2015-Aug-29 18:33N 54°36' E 012°21'1515.4
2015-Aug-29 17:33N 54°22' E 012°08'1211.7
2015-Aug-29 16:33N 54°11' E 012°06'0 0.2
2015-Aug-29 15:33N 54°11' E 012°06'0 0.0
2015-Aug-29 14:33N 54°11' E 012°06'0 0.0
2015-Aug-29 13:31N 54°11' E 012°06'0 0.0
2015-Aug-29 12:31N 54°11' E 012°06'0 0.0
2015-Aug-29 11:22N 54°11' E 012°06'0 0.0
2015-Aug-29 10:31N 54°11' E 012°06'0 0.0
2015-Aug-29 09:25N 54°11' E 012°06'0 0.0
2015-Aug-29 08:31N 54°11' E 012°06'0 0.0
2015-Aug-29 07:31N 54°11' E 012°06'0 0.0
2015-Aug-29 06:19N 54°11' E 012°06'0 0.0
2015-Aug-29 05:25N 54°11' E 012°06'1 0.8
2015-Aug-29 04:33N 54°10' E 012°06'7 7.4
2015-Aug-29 03:33N 54°17' E 012°01'1211.9
2015-Aug-29 02:34N 54°28' E 012°10'6014.2
2015-Aug-28 22:22N 54°59' E 013°37'1215.4
2015-Aug-28 21:33N 55°03' E 013°58'1515.1
2015-Aug-28 20:33N 55°13' E 014°18'1615.6
2015-Aug-28 19:34N 55°25' E 014°35'1615.7
2015-Aug-28 18:33N 55°34' E 014°58'1514.8
2015-Aug-28 17:33N 55°42' E 015°20'12014.4
2015-Aug-28 09:15N 57°17' E 017°33'131 8.9
2015-Aug-27 18:32N 59°25' E 018°24'6 5.7
2015-Aug-27 17:33N 59°22' E 018°16'6 5.5
2015-Aug-27 16:32N 59°19' E 018°06'0 0.0
2015-Aug-27 15:32N 59°19' E 018°06'0 0.0
2015-Aug-27 14:32N 59°19' E 018°06'0 0.0
2015-Aug-27 13:32N 59°19' E 018°06'0 0.0
2015-Aug-27 12:32N 59°19' E 018°06'0 0.0
2015-Aug-27 11:32N 59°19' E 018°06'0 0.0
2015-Aug-27 10:32N 59°19' E 018°06'0 0.0
2015-Aug-27 09:34N 59°19' E 018°06'0 0.0
2015-Aug-27 08:34N 59°19' E 018°06'0 0.0
2015-Aug-27 07:33N 59°19' E 018°06'2 1.8
2015-Aug-27 06:33N 59°19' E 018°10'10 7.0
2015-Aug-27 05:05N 59°26' E 018°24'8612.7
2015-Aug-26 22:18N 59°33' E 021°12'1215.7
2015-Aug-26 21:31N 59°31' E 021°36'6015.2
2015-Aug-26 17:33N 59°39' E 023°34'1615.7
2015-Aug-26 16:33N 59°45' E 024°03'31 2.5
2015-Aug-26 04:15N 60°01' E 024°56'1014.2
2015-Aug-26 03:33N 59°56' E 025°13'1716.5
2015-Aug-26 02:33N 59°55' E 025°46'1716.5
2015-Aug-26 01:33N 59°59' E 026°18'1716.0
2015-Aug-26 00:31N 60°00' E 026°51'1715.5
2015-Aug-25 23:26N 60°05' E 027°23'1715.7
2015-Aug-25 22:20N 60°11' E 027°56'4516.2
2015-Aug-25 19:33N 60°02' E 029°25'1211.6
2015-Aug-25 18:32N 59°58' E 029°47'1010.2
2015-Aug-25 17:33N 59°57' E 030°07'2 2.0
2015-Aug-25 16:31N 59°57' E 030°11'0 0.0
2015-Aug-25 15:33N 59°57' E 030°11'0 0.0
2015-Aug-25 14:32N 59°57' E 030°11'0 0.0
2015-Aug-25 13:32N 59°57' E 030°11'0 0.0
2015-Aug-25 12:32N 59°57' E 030°11'0 0.0
2015-Aug-25 11:33N 59°57' E 030°11'0 0.0
2015-Aug-25 10:31N 59°57' E 030°11'0 0.0
2015-Aug-25 09:32N 59°57' E 030°11'0 0.0
2015-Aug-25 08:32N 59°57' E 030°11'0 0.0
2015-Aug-25 07:32N 59°57' E 030°11'0 0.0
2015-Aug-25 06:31N 59°57' E 030°11'0 0.0
2015-Aug-25 05:33N 59°57' E 030°11'0 0.0
2015-Aug-25 04:32N 59°57' E 030°11'3 3.4
2015-Aug-25 03:33N 59°56' E 030°05'10 9.8
2015-Aug-25 02:33N 59°59' E 029°46'1212.5
2015-Aug-25 01:33N 60°02' E 029°22'4414.0
2015-Aug-24 22:25N 60°10' E 027°55'1214.4
2015-Aug-24 21:33N 60°07' E 027°31'1615.8
2015-Aug-24 20:33N 59°58' E 027°04'1616.1
2015-Aug-24 19:33N 59°59' E 026°32'1616.4
2015-Aug-24 18:33N 59°53' E 026°02'  
Track history (hours):
 
Tides and Currents Weather Stations Pressure Air Temp Water Temp Dewpoint Dewpoint Depression Visibility Wind Speed Wind Dir Waves Ship Positions

Aidamar

Last reported at 2015-Sep-03 18:33 UTC. Time now 2015-Sep-03 23:27 UTC.
Position N 59°25' E 018°24'.

Length 253 m; draft 7.3 m.

Type: Passenger vessel. MMSI: 247312900.

Date/timePositionNaut miles runAvg speedWind from/ knotsBaromVisibWave heightAir tempDewpointWater temp
2015-Sep-03 18:33N 59°25' E 018°24'8 7.0
2015-Sep-03 17:27N 59°20' E 018°13'4 3.2
2015-Sep-03 16:22N 59°19' E 018°06'0 0.0
2015-Sep-03 15:28N 59°19' E 018°06'0 0.0
2015-Sep-03 14:28N 59°19' E 018°06'0 0.0
2015-Sep-03 13:32N 59°19' E 018°06'0 0.0
2015-Sep-03 12:32N 59°19' E 018°06'0 0.0
2015-Sep-03 11:33N 59°19' E 018°06'0 0.0
2015-Sep-03 10:33N 59°19' E 018°06'0 0.0
2015-Sep-03 09:33N 59°19' E 018°06'0 0.0
2015-Sep-03 08:30N 59°19' E 018°06'0 0.0
2015-Sep-03 07:33N 59°19' E 018°06'2 2.3
2015-Sep-03 06:33N 59°19' E 018°10'9411.2
2015-Sep-02 22:12N 59°33' E 021°13'1016.1
2015-Sep-02 21:34N 59°32' E 021°33'5516.0
2015-Sep-02 18:09N 59°37' E 023°21'1116.2
2015-Sep-02 17:28N 59°40' E 023°42'1716.5
2015-Sep-02 16:25N 59°45' E 024°15'167 7.5
2015-Sep-01 18:05N 59°59' E 029°46'611.6
2015-Sep-01 17:33N 59°56' E 029°57'7 6.7
2015-Sep-01 16:29N 59°57' E 030°11'0 0.0
2015-Sep-01 15:32N 59°57' E 030°11'0 0.0
2015-Sep-01 14:24N 59°57' E 030°11'0 0.0
2015-Sep-01 13:32N 59°57' E 030°11'0 0.0
2015-Sep-01 12:30N 59°57' E 030°11'0 0.0
2015-Sep-01 11:33N 59°57' E 030°11'0 0.0
2015-Sep-01 10:33N 59°57' E 030°11'0 0.0
2015-Sep-01 09:19N 59°57' E 030°11'0 0.0
2015-Sep-01 08:33N 59°57' E 030°11'0 0.0
2015-Sep-01 07:32N 59°57' E 030°11'0 0.0
2015-Sep-01 06:32N 59°57' E 030°11'0 0.0
2015-Sep-01 05:23N 59°57' E 030°11'0 0.0
2015-Sep-01 04:30N 59°57' E 030°11'3 2.8
2015-Sep-01 03:33N 59°57' E 030°06'1010.4
2015-Sep-01 02:33N 59°59' E 029°46'8013.1
2015-Aug-31 20:26N 59°59' E 027°05'1416.4
2015-Aug-31 19:34N 59°59' E 026°36'1716.8
2015-Aug-31 18:33N 59°54' E 026°04'1816.8
2015-Aug-31 17:30N 59°49' E 025°31'2016.8
2015-Aug-31 16:20N 59°43' E 024°53'1114.4
2015-Aug-31 15:33N 59°33' E 024°43'6 1.8
2015-Aug-31 12:11N 59°27' E 024°46'0 0.0
2015-Aug-31 11:33N 59°27' E 024°46'0 0.0
2015-Aug-31 10:33N 59°27' E 024°46'0 0.0
2015-Aug-31 09:29N 59°27' E 024°46'0 0.0
2015-Aug-31 08:32N 59°27' E 024°46'0 0.0
2015-Aug-31 07:33N 59°27' E 024°46'0 0.0
2015-Aug-31 06:30N 59°27' E 024°46'0 0.0
2015-Aug-31 05:33N 59°27' E 024°46'6 6.4
2015-Aug-31 04:33N 59°30' E 024°34'1714.8
2015-Aug-31 03:24N 59°30' E 024°01'2111.2
2015-Aug-31 01:32N 59°30' E 023°20'9 9.1
2015-Aug-31 00:33N 59°28' E 023°02'26714.8
2015-Aug-30 06:29N 56°16' E 017°14'4916.6
2015-Aug-30 03:33N 55°50' E 016°01'1716.9
2015-Aug-30 02:33N 55°42' E 015°35'1717.1
2015-Aug-30 01:33N 55°33' E 015°08'1717.0
2015-Aug-30 00:33N 55°25' E 014°42'1716.8
2015-Aug-29 23:34N 55°12' E 014°23'1616.4
2015-Aug-29 22:33N 55°00' E 014°03'1616.3
2015-Aug-29 21:34N 54°55' E 013°36'1616.2
2015-Aug-29 20:33N 54°50' E 013°09'1615.8
2015-Aug-29 19:33N 54°45' E 012°44'1616.0
2015-Aug-29 18:33N 54°36' E 012°21'1515.4
2015-Aug-29 17:33N 54°22' E 012°08'1211.7
2015-Aug-29 16:33N 54°11' E 012°06'0 0.2
2015-Aug-29 15:33N 54°11' E 012°06'0 0.0
2015-Aug-29 14:33N 54°11' E 012°06'0 0.0
2015-Aug-29 13:31N 54°11' E 012°06'0 0.0
2015-Aug-29 12:31N 54°11' E 012°06'0 0.0
2015-Aug-29 11:22N 54°11' E 012°06'0 0.0
2015-Aug-29 10:31N 54°11' E 012°06'0 0.0
2015-Aug-29 09:25N 54°11' E 012°06'0 0.0
2015-Aug-29 08:31N 54°11' E 012°06'0 0.0
2015-Aug-29 07:31N 54°11' E 012°06'0 0.0
2015-Aug-29 06:19N 54°11' E 012°06'0 0.0
2015-Aug-29 05:25N 54°11' E 012°06'1 0.8
2015-Aug-29 04:33N 54°10' E 012°06'7 7.4
2015-Aug-29 03:33N 54°17' E 012°01'1211.9
2015-Aug-29 02:34N 54°28' E 012°10'6014.2
2015-Aug-28 22:22N 54°59' E 013°37'1215.4
2015-Aug-28 21:33N 55°03' E 013°58'1515.1
2015-Aug-28 20:33N 55°13' E 014°18'1615.6
2015-Aug-28 19:34N 55°25' E 014°35'1615.7
2015-Aug-28 18:33N 55°34' E 014°58'1514.8
2015-Aug-28 17:33N 55°42' E 015°20'12014.4
2015-Aug-28 09:15N 57°17' E 017°33'131 8.9
2015-Aug-27 18:32N 59°25' E 018°24'6 5.7
2015-Aug-27 17:33N 59°22' E 018°16'6 5.5
2015-Aug-27 16:32N 59°19' E 018°06'0 0.0
2015-Aug-27 15:32N 59°19' E 018°06'0 0.0
2015-Aug-27 14:32N 59°19' E 018°06'0 0.0
2015-Aug-27 13:32N 59°19' E 018°06'0 0.0
2015-Aug-27 12:32N 59°19' E 018°06'0 0.0
2015-Aug-27 11:32N 59°19' E 018°06'0 0.0
2015-Aug-27 10:32N 59°19' E 018°06'0 0.0
2015-Aug-27 09:34N 59°19' E 018°06'0 0.0
2015-Aug-27 08:34N 59°19' E 018°06'0 0.0
2015-Aug-27 07:33N 59°19' E 018°06'2 1.8
2015-Aug-27 06:33N 59°19' E 018°10'10 7.0
2015-Aug-27 05:05N 59°26' E 018°24'8612.7
2015-Aug-26 22:18N 59°33' E 021°12'1215.7
2015-Aug-26 21:31N 59°31' E 021°36'6015.2
2015-Aug-26 17:33N 59°39' E 023°34'1615.7
2015-Aug-26 16:33N 59°45' E 024°03'31 2.5
2015-Aug-26 04:15N 60°01' E 024°56'1014.2
2015-Aug-26 03:33N 59°56' E 025°13'1716.5
2015-Aug-26 02:33N 59°55' E 025°46'1716.5
2015-Aug-26 01:33N 59°59' E 026°18'1716.0
2015-Aug-26 00:31N 60°00' E 026°51'1715.5
2015-Aug-25 23:26N 60°05' E 027°23'1715.7
2015-Aug-25 22:20N 60°11' E 027°56'4516.2
2015-Aug-25 19:33N 60°02' E 029°25'1211.6
2015-Aug-25 18:32N 59°58' E 029°47'1010.2
2015-Aug-25 17:33N 59°57' E 030°07'2 2.0
2015-Aug-25 16:31N 59°57' E 030°11'0 0.0
2015-Aug-25 15:33N 59°57' E 030°11'0 0.0
2015-Aug-25 14:32N 59°57' E 030°11'0 0.0
2015-Aug-25 13:32N 59°57' E 030°11'0 0.0
2015-Aug-25 12:32N 59°57' E 030°11'0 0.0
2015-Aug-25 11:33N 59°57' E 030°11'0 0.0
2015-Aug-25 10:31N 59°57' E 030°11'0 0.0
2015-Aug-25 09:32N 59°57' E 030°11'0 0.0
2015-Aug-25 08:32N 59°57' E 030°11'0 0.0
2015-Aug-25 07:32N 59°57' E 030°11'0 0.0
2015-Aug-25 06:31N 59°57' E 030°11'0 0.0
2015-Aug-25 05:33N 59°57' E 030°11'0 0.0
2015-Aug-25 04:32N 59°57' E 030°11'3 3.4
2015-Aug-25 03:33N 59°56' E 030°05'10 9.8
2015-Aug-25 02:33N 59°59' E 029°46'1212.5
2015-Aug-25 01:33N 60°02' E 029°22'4414.0
2015-Aug-24 22:25N 60°10' E 027°55'1214.4
2015-Aug-24 21:33N 60°07' E 027°31'1615.8
2015-Aug-24 20:33N 59°58' E 027°04'1616.1
2015-Aug-24 19:33N 59°59' E 026°32'1616.4
2015-Aug-24 18:33N 59°53' E 026°02'  

Dump ship's entire track history